TAF KSGU
KSGU 270536Z 2706/2806 VRB04KT P6SM SKC=
METAR KSGU
WC KSGU
WS KSGU
WV KSGU